Main page
METAR-TAF:

METAR-TAF

Airports :

Nîmes, France

Nîmes–Alès–Camargue–Cévennes Airport

latitude: 43-45N, longitude: 004-25E, elevation: 94 m

Current weather observation

The report was made 17 minutes ago, at 03:30 UTC
Wind 6 kt from the West/Northwest, varying between West and Northwest
Temperature 12°C
Humidity 58%
Pressure 1020 hPa
Visibility 10 km or more
no clouds below 1500 m and no cumulonimbus

METAR: LFTW 200330Z AUTO 29006KT 260V320 CAVOK 12/04 Q1020 NOSIG

Time: 05:47 (03:47 UTC)

Forecast

The report was made 1 hour and 47 minutes ago, at 02:00 UTC
Forecast valid from 20 at 03 UTC to 21 at 03 UTC
Wind 8 kt from the North/Northwest
Visibility 10 km or more
no clouds below 1500 m and no cumulonimbus
Temporary
from 20 at 08 UTC to 20 at 13 UTC
Wind 15 kt from the North with gusts up to 25 kt

TAF: LFTW 200200Z 2003/2103 34008KT CAVOK TEMPO 2008/2013 36015G25KT

Weather observations and forecasts of more than 4000 airports (METAR and TAF reports).

The available stations are represented by yellow and red dots on the map.

Hover mouse over dot to see the name of the station.

Then click to see weather observations and forecasts.

To change the map : click on the green buttons with a black cross to zoom in, on the green button with a dash to zoom out, or on the green arrows for adjacent maps.


METAR-TAF: